Time;durP1;ratioP1;P1;durP2;ratioP2;P2;SDS_P1;SDS_P2;PMS_P1;PMS_P2;Temp;Humidity;BMP_temperature;BMP_pressure;BME280_temperature;BME280_humidity;BME280_pressure;Samples;Min_cycle;Max_cycle;Signal;HPM_P1;HPM_P2
2021/05/07 00:00:02;;;;;;;19.70;11.30;;;;;;;6.82;100.00;100281.53;5022815;28;20839;-82
2021/05/07 00:02:30;;;;;;;18.20;11.23;;;;;;;6.74;100.00;100275.75;5024817;28;20720;-82
2021/05/07 00:04:55;;;;;;;18.77;12.15;;;;;;;6.70;100.00;100279.53;5003101;28;20042;-80
2021/05/07 00:07:21;;;;;;;20.13;12.85;;;;;;;6.66;100.00;100275.31;5019149;28;20030;-80
2021/05/07 00:09:46;;;;;;;17.17;10.70;;;;;;;6.62;100.00;100285.28;5017334;28;20030;-81
2021/05/07 00:12:11;;;;;;;17.38;10.88;;;;;;;6.66;100.00;100284.19;5006122;28;20056;-81
2021/05/07 00:14:37;;;;;;;18.30;11.98;;;;;;;6.72;100.00;100280.31;5022984;28;20076;-81
2021/05/07 00:17:02;;;;;;;17.33;11.77;;;;;;;6.55;100.00;100281.22;5023695;28;20088;-82
2021/05/07 00:19:28;;;;;;;19.63;12.07;;;;;;;6.48;100.00;100282.53;5022664;28;20414;-82
2021/05/07 00:21:53;;;;;;;22.75;12.68;;;;;;;6.40;100.00;100293.59;5027961;28;20045;-81
2021/05/07 00:24:19;;;;;;;24.38;13.18;;;;;;;6.38;100.00;100298.16;5025618;28;20044;-82
2021/05/07 00:26:44;;;;;;;21.17;12.73;;;;;;;6.31;100.00;100288.75;5009706;28;20042;-81
2021/05/07 00:29:09;;;;;;;20.95;12.93;;;;;;;6.34;100.00;100296.59;5001926;28;20040;-81
2021/05/07 00:31:35;;;;;;;19.55;12.20;;;;;;;6.22;100.00;100297.25;5024631;28;20398;-82
2021/05/07 00:34:00;;;;;;;22.40;13.10;;;;;;;6.24;100.00;100292.69;5004032;28;20033;-80
2021/05/07 00:36:26;;;;;;;19.27;11.52;;;;;;;6.18;100.00;100300.13;5010230;28;20055;-81
2021/05/07 00:38:51;;;;;;;20.63;12.88;;;;;;;6.14;100.00;100299.44;5025726;28;20055;-82
2021/05/07 00:41:17;;;;;;;23.38;13.38;;;;;;;6.13;100.00;100304.84;5027591;28;20028;-81
2021/05/07 00:43:43;;;;;;;22.80;13.52;;;;;;;6.12;100.00;100298.66;5003625;28;20080;-81
2021/05/07 00:46:09;;;;;;;21.95;13.68;;;;;;;6.14;100.00;100298.59;5033892;28;20025;-81
2021/05/07 00:48:36;;;;;;;23.70;13.65;;;;;;;6.14;100.00;100294.13;5022829;28;20141;-81
2021/05/07 00:51:03;;;;;;;21.98;13.63;;;;;;;6.11;100.00;100294.28;5023487;28;20425;-82
2021/05/07 00:53:28;;;;;;;21.50;13.20;;;;;;;6.10;100.00;100300.56;5023724;28;20029;-81
2021/05/07 00:55:55;;;;;;;24.20;13.90;;;;;;;6.08;100.00;100300.63;5026618;28;20072;-82
2021/05/07 00:58:21;;;;;;;22.00;14.27;;;;;;;6.10;100.00;100308.56;5019683;28;20037;-80
2021/05/07 01:00:52;;;;;;;21.65;13.20;;;;;;;6.05;100.00;100307.91;5002088;28;20086;-80
2021/05/07 01:03:18;;;;;;;21.00;12.98;;;;;;;6.06;100.00;100312.31;5024156;28;20041;-80
2021/05/07 01:05:44;;;;;;;27.30;13.73;;;;;;;6.01;100.00;100319.69;5025814;28;20029;-82
2021/05/07 01:08:15;;;;;;;22.65;13.63;;;;;;;6.04;100.00;100303.56;5014181;28;20524;-81
2021/05/07 01:10:46;;;;;;;22.50;13.88;;;;;;;6.00;100.00;100309.97;5021045;28;20033;-81
2021/05/07 01:13:12;;;;;;;21.83;12.80;;;;;;;5.98;100.00;100311.88;5021074;28;20576;-81
2021/05/07 01:15:38;;;;;;;23.90;14.35;;;;;;;5.98;100.00;100310.06;5027193;28;20033;-81
2021/05/07 01:18:03;;;;;;;26.10;14.80;;;;;;;6.02;100.00;100310.75;5024428;28;20095;-81
2021/05/07 01:20:32;;;;;;;25.23;14.98;;;;;;;5.97;100.00;100318.13;5020567;28;20119;-81
2021/05/07 01:23:02;;;;;;;26.30;14.88;;;;;;;6.04;100.00;100314.22;5016903;28;20040;-80
2021/05/07 01:25:30;;;;;;;24.90;15.35;;;;;;;5.97;100.00;100318.13;5003942;28;20026;-81
2021/05/07 01:27:58;;;;;;;28.85;16.33;;;;;;;5.95;100.00;100317.34;5007360;28;20038;-80
2021/05/07 01:30:30;;;;;;;28.77;17.45;;;;;;;5.95;100.00;100322.66;5008000;28;20028;-79
2021/05/07 01:32:57;;;;;;;28.55;17.73;;;;;;;5.93;100.00;100327.19;5021384;28;20029;-82
2021/05/07 01:35:28;;;;;;;32.83;17.17;;;;;;;5.87;100.00;100333.69;5006781;28;20049;-81
2021/05/07 01:38:00;;;;;;;30.98;18.27;;;;;;;5.89;100.00;100336.28;5015023;28;20128;-82
2021/05/07 01:40:29;;;;;;;31.83;19.20;;;;;;;5.89;100.00;100328.31;5022287;28;20465;-81
2021/05/07 01:42:56;;;;;;;34.13;18.13;;;;;;;5.84;100.00;100332.97;5009943;28;20445;-80
2021/05/07 01:45:26;;;;;;;33.67;18.80;;;;;;;5.85;100.00;100329.38;5017084;28;20064;-80
2021/05/07 01:47:52;;;;;;;31.15;18.13;;;;;;;5.82;100.00;100326.84;5024192;28;20033;-80
2021/05/07 01:50:20;;;;;;;34.25;18.80;;;;;;;5.77;100.00;100331.56;5030708;28;20382;-80
2021/05/07 01:52:46;;;;;;;33.58;19.08;;;;;;;5.78;100.00;100338.63;5018616;28;20025;-79
2021/05/07 01:55:18;;;;;;;35.22;18.58;;;;;;;5.78;100.00;100334.16;5010903;28;20552;-81
2021/05/07 01:57:44;;;;;;;33.38;19.88;;;;;;;5.75;100.00;100331.63;5008917;28;20033;-81
2021/05/07 02:00:13;;;;;;;36.55;19.88;;;;;;;5.83;100.00;100347.22;5021151;28;20018;-81
2021/05/07 02:02:45;;;;;;;32.03;19.15;;;;;;;5.68;100.00;100338.19;5023053;28;20106;-81
2021/05/07 02:05:21;;;;;;;34.47;18.85;;;;;;;5.66;100.00;100343.63;5025649;28;20037;-80
2021/05/07 02:07:48;;;;;;;35.33;19.70;;;;;;;5.63;100.00;100343.75;5029951;28;20033;-81
2021/05/07 02:10:19;;;;;;;35.22;20.00;;;;;;;5.62;100.00;100346.50;5030022;28;20473;-79
2021/05/07 02:12:46;;;;;;;32.22;19.23;;;;;;;5.60;100.00;100351.06;5023158;28;20128;-81
2021/05/07 02:15:14;;;;;;;37.75;20.83;;;;;;;5.57;100.00;100346.72;5024387;28;20061;-82
2021/05/07 02:17:41;;;;;;;36.80;19.40;;;;;;;5.56;100.00;100344.13;5022929;28;20056;-82
2021/05/07 02:20:10;;;;;;;33.17;19.13;;;;;;;5.51;100.00;100347.03;5026897;28;20054;-81
2021/05/07 02:22:35;;;;;;;36.03;19.25;;;;;;;5.50;100.00;100347.09;5023760;28;20045;-81
2021/05/07 02:25:02;;;;;;;32.50;19.17;;;;;;;5.49;100.00;100348.91;5024022;28;20069;-80
2021/05/07 02:27:28;;;;;;;35.22;19.85;;;;;;;5.47;100.00;100352.59;5025396;28;20076;-80
2021/05/07 02:29:53;;;;;;;34.38;19.65;;;;;;;5.42;100.00;100357.28;5025972;28;20038;-80
2021/05/07 02:32:19;;;;;;;36.60;20.42;;;;;;;5.38;100.00;100359.22;5031855;28;20037;-80
2021/05/07 02:34:45;;;;;;;38.40;20.48;;;;;;;5.33;100.00;100368.38;5013832;28;20036;-80
2021/05/07 02:37:10;;;;;;;35.75;20.50;;;;;;;5.28;100.00;100365.94;5026979;28;20029;-81
2021/05/07 02:39:36;;;;;;;36.13;20.30;;;;;;;5.29;100.00;100367.66;5026475;28;20029;-81
2021/05/07 02:42:02;;;;;;;35.05;21.02;;;;;;;5.25;100.00;100368.72;5020853;28;20034;-82
2021/05/07 02:44:28;;;;;;;37.22;20.98;;;;;;;5.25;100.00;100379.38;5024459;28;20025;-81
2021/05/07 02:46:54;;;;;;;44.67;22.48;;;;;;;5.25;100.00;100382.03;5006573;28;20040;-82
2021/05/07 02:49:19;;;;;;;39.03;21.48;;;;;;;5.20;100.00;100389.38;5010453;28;20044;-81
2021/05/07 02:51:45;;;;;;;44.70;23.90;;;;;;;5.17;100.00;100381.56;5019975;28;20031;-82
2021/05/07 02:54:10;;;;;;;45.15;24.38;;;;;;;5.21;100.00;100391.09;5032436;28;20911;-82
2021/05/07 02:56:36;;;;;;;44.33;23.90;;;;;;;5.20;100.00;100390.25;5027041;28;20483;-80
2021/05/07 02:59:02;;;;;;;42.05;23.98;;;;;;;5.21;100.00;100384.00;5019622;28;20112;-81
2021/05/07 03:01:27;;;;;;;45.13;25.42;;;;;;;5.23;100.00;100386.59;5023948;28;20079;-80
2021/05/07 03:03:52;;;;;;;53.92;26.50;;;;;;;5.21;100.00;100383.13;5012786;28;20056;-81
2021/05/07 03:06:18;;;;;;;48.45;26.40;;;;;;;5.24;100.00;100381.19;5029810;28;20060;-82
2021/05/07 03:08:43;;;;;;;49.88;25.73;;;;;;;5.16;100.00;100388.66;5014292;28;20051;-81
2021/05/07 03:11:09;;;;;;;49.00;24.63;;;;;;;5.15;100.00;100386.06;5027693;28;20028;-80
2021/05/07 03:13:35;;;;;;;47.08;24.83;;;;;;;5.11;100.00;100388.03;5030850;28;20037;-81
2021/05/07 03:16:00;;;;;;;46.35;24.70;;;;;;;5.10;100.00;100394.28;5029709;28;20128;-80
2021/05/07 03:18:28;;;;;;;45.88;24.38;;;;;;;5.08;100.00;100385.50;5012194;28;20478;-80
2021/05/07 03:20:55;;;;;;;44.92;24.00;;;;;;;5.09;100.00;100386.38;5031216;28;20056;-80
2021/05/07 03:23:21;;;;;;;42.28;23.50;;;;;;;5.08;100.00;100392.63;5031083;28;20664;-81
2021/05/07 03:25:46;;;;;;;40.90;23.50;;;;;;;5.07;100.00;100405.06;5019296;28;20017;-81
2021/05/07 03:28:13;;;;;;;49.20;25.33;;;;;;;5.00;100.00;100395.63;5010997;28;20339;-81
2021/05/07 03:30:38;;;;;;;37.70;22.35;;;;;;;5.00;100.00;100397.44;5044337;28;20040;-81
2021/05/07 03:33:05;;;;;;;40.67;23.55;;;;;;;4.96;100.00;100403.81;5029507;28;20037;-81
2021/05/07 03:35:32;;;;;;;44.65;23.00;;;;;;;4.95;100.00;100399.44;5023415;28;20041;-81
2021/05/07 03:37:57;;;;;;;47.03;22.63;;;;;;;4.94;100.00;100397.75;5011221;28;20041;-81
2021/05/07 03:40:23;;;;;;;44.28;23.30;;;;;;;4.91;100.00;100408.50;5027100;28;20025;-81
2021/05/07 03:42:49;;;;;;;39.58;22.15;;;;;;;4.89;100.00;100406.78;5023675;28;20112;-81
2021/05/07 03:45:16;;;;;;;39.30;22.00;;;;;;;4.87;100.00;100408.66;5024495;28;20028;-81
2021/05/07 03:47:43;;;;;;;44.53;23.75;;;;;;;4.86;100.00;100419.34;5029407;28;20152;-81
2021/05/07 03:50:09;;;;;;;40.28;22.00;;;;;;;4.82;100.00;100423.06;5023635;28;20099;-80
2021/05/07 03:52:35;;;;;;;41.53;23.45;;;;;;;4.78;100.00;100425.00;5044407;28;20036;-79
2021/05/07 03:55:02;;;;;;;42.33;24.17;;;;;;;4.78;100.00;100430.34;5025435;28;20666;-81
2021/05/07 03:57:27;;;;;;;46.13;24.40;;;;;;;4.78;100.00;100430.34;5023567;28;20124;-80
2021/05/07 03:59:53;;;;;;;42.10;22.88;;;;;;;4.76;100.00;100432.19;5008616;28;20538;-80
2021/05/07 04:02:19;;;;;;;47.30;24.85;;;;;;;4.76;100.00;100437.50;5030340;28;20033;-79
2021/05/07 04:04:45;;;;;;;51.78;26.70;;;;;;;4.74;100.00;100427.88;5027813;28;20609;-81
2021/05/07 04:07:12;;;;;;;43.95;24.45;;;;;;;4.72;100.00;100435.94;5024080;28;20034;-80
2021/05/07 04:09:42;;;;;;;48.00;26.13;;;;;;;4.71;100.00;100423.56;5013191;28;20509;-79
2021/05/07 04:12:17;;;;;;;51.47;27.92;;;;;;;4.71;100.00;100436.84;5034892;28;20065;-82
2021/05/07 04:14:43;;;;;;;52.47;28.08;;;;;;;4.71;100.00;100439.50;5011158;28;20590;-81
2021/05/07 04:17:08;;;;;;;48.83;27.63;;;;;;;4.72;100.00;100443.03;5027814;28;20037;-80
2021/05/07 04:19:34;;;;;;;53.35;27.15;;;;;;;4.73;100.00;100434.13;5001821;28;20510;-82
2021/05/07 04:21:59;;;;;;;48.97;28.23;;;;;;;4.73;100.00;100434.13;5023307;28;20045;-80
2021/05/07 04:24:25;;;;;;;49.72;27.33;;;;;;;4.74;100.00;100434.06;5015072;28;20065;-81
2021/05/07 04:26:50;;;;;;;57.05;29.67;;;;;;;4.75;100.00;100435.78;5011335;28;20030;-80
2021/05/07 04:29:15;;;;;;;53.00;27.77;;;;;;;4.71;100.00;100434.19;5021326;28;20489;-80
2021/05/07 04:31:41;;;;;;;49.38;26.92;;;;;;;4.71;100.00;100426.22;5002166;28;20036;-79
2021/05/07 04:34:06;;;;;;;58.42;29.52;;;;;;;4.64;100.00;100437.19;5025158;28;20033;-81
2021/05/07 04:36:33;;;;;;;56.58;29.75;;;;;;;4.63;100.00;100438.97;5019071;28;20037;-80
2021/05/07 04:38:58;;;;;;;55.78;30.45;;;;;;;4.66;100.00;100436.19;5022982;28;20029;-81
2021/05/07 04:41:25;;;;;;;59.08;31.17;;;;;;;4.70;100.00;100439.56;5024879;28;20648;-82
2021/05/07 04:43:51;;;;;;;61.42;31.50;;;;;;;4.75;100.00;100451.72;5004793;28;20060;-80
2021/05/07 04:46:16;;;;;;;62.65;32.85;;;;;;;4.84;100.00;100461.09;5022004;28;20032;-82
2021/05/07 04:48:42;;;;;;;64.78;34.25;;;;;;;4.97;100.00;100467.59;5026938;28;20033;-80
2021/05/07 04:51:07;;;;;;;65.40;34.30;;;;;;;5.03;100.00;100469.13;5025739;28;20528;-81
2021/05/07 04:53:32;;;;;;;66.28;34.97;;;;;;;5.19;100.00;100473.66;5006079;28;20505;-80
2021/05/07 04:55:58;;;;;;;76.10;37.22;;;;;;;5.19;100.00;100480.75;5018002;28;20052;-81
2021/05/07 04:58:23;;;;;;;71.10;36.33;;;;;;;5.18;100.00;100481.72;5024219;28;20029;-81
2021/05/07 05:00:49;;;;;;;68.32;35.90;;;;;;;5.13;100.00;100483.72;5024144;28;20052;-82
2021/05/07 05:03:14;;;;;;;72.82;36.75;;;;;;;5.13;100.00;100494.34;5019450;28;20029;-80
2021/05/07 05:05:40;;;;;;;71.13;37.63;;;;;;;5.15;100.00;100500.47;5027100;28;20524;-81
2021/05/07 05:08:05;;;;;;;73.07;38.47;;;;;;;5.14;100.00;100501.41;5024584;28;20034;-80
2021/05/07 05:10:31;;;;;;;68.88;36.47;;;;;;;5.15;100.00;100498.69;5030853;28;20040;-81
2021/05/07 05:12:57;;;;;;;74.07;37.42;;;;;;;5.19;100.00;100502.06;4999490;28;20380;-81
2021/05/07 05:15:22;;;;;;;75.00;37.45;;;;;;;5.21;100.00;100510.84;5026007;28;20387;-81
2021/05/07 05:17:50;;;;;;;74.85;39.88;;;;;;;5.28;100.00;100525.59;5003137;28;20137;-80
2021/05/07 05:20:15;;;;;;;72.60;38.08;;;;;;;5.31;100.00;100536.09;5015124;28;20044;-83
2021/05/07 05:22:41;;;;;;;76.13;37.63;;;;;;;5.47;100.00;100531.81;5036609;28;20030;-83
2021/05/07 05:25:07;;;;;;;76.30;38.28;;;;;;;5.40;100.00;100522.38;5028631;28;20650;-83
2021/05/07 05:27:33;;;;;;;61.80;34.42;;;;;;;5.55;100.00;100524.34;5025609;28;20029;-84
2021/05/07 05:29:58;;;;;;;49.72;26.10;;;;;;;5.48;100.00;100517.56;5010052;28;20636;-85
2021/05/07 05:32:24;;;;;;;52.95;26.75;;;;;;;5.41;100.00;100532.09;5015711;28;20038;-82
2021/05/07 05:34:51;;;;;;;47.70;24.35;;;;;;;5.34;100.00;100527.97;5027531;28;20037;-81
2021/05/07 05:37:16;;;;;;;43.95;20.27;;;;;;;5.28;100.00;100521.13;5034823;28;20061;-84
2021/05/07 05:39:42;;;;;;;36.55;20.27;;;;;;;5.23;100.00;100522.28;5024432;28;20171;-83
2021/05/07 05:42:07;;;;;;;37.13;20.02;;;;;;;5.20;100.00;100520.63;5031207;28;20041;-82
2021/05/07 05:44:32;;;;;;;39.75;19.83;;;;;;;5.24;100.00;100508.06;5023399;28;20099;-81
2021/05/07 05:46:58;;;;;;;34.92;20.00;;;;;;;5.24;100.00;100502.72;5027515;28;20030;-83
2021/05/07 05:49:23;;;;;;;37.58;20.60;;;;;;;5.21;100.00;100508.19;5031279;28;20256;-81
2021/05/07 05:51:49;;;;;;;38.88;20.25;;;;;;;5.25;100.00;100504.44;5029385;28;20083;-82
2021/05/07 05:54:14;;;;;;;39.60;20.38;;;;;;;5.32;100.00;100505.00;5030017;28;20044;-82
2021/05/07 05:56:40;;;;;;;37.85;21.45;;;;;;;5.33;100.00;100496.97;5021088;28;20055;-81
2021/05/07 05:59:05;;;;;;;46.45;22.38;;;;;;;5.36;100.00;100495.97;5026108;28;20037;-80
2021/05/07 06:01:31;;;;;;;41.60;21.70;;;;;;;5.32;100.00;100495.22;5022402;28;20049;-82
2021/05/07 06:03:56;;;;;;;43.35;23.02;;;;;;;5.35;100.00;100495.09;5023580;28;20041;-82
2021/05/07 06:06:22;;;;;;;44.95;23.77;;;;;;;5.41;100.00;100505.47;5012297;28;20040;-81
2021/05/07 06:08:47;;;;;;;45.80;24.00;;;;;;;5.49;100.00;100503.28;5008131;28;20076;-83
2021/05/07 06:11:12;;;;;;;39.00;22.67;;;;;;;5.55;100.00;100505.69;5026600;28;20417;-82
2021/05/07 06:13:38;;;;;;;43.42;22.83;;;;;;;5.59;100.00;100509.06;5028257;28;20448;-81
2021/05/07 06:16:04;;;;;;;39.17;22.67;;;;;;;5.62;100.00;100523.09;5026809;28;20044;-81
2021/05/07 06:18:29;;;;;;;41.67;22.75;;;;;;;5.67;100.00;100520.22;5000428;28;20116;-82
2021/05/07 06:20:55;;;;;;;43.72;22.77;;;;;;;5.68;100.00;100538.78;5028783;28;20076;-81
2021/05/07 06:23:22;;;;;;;37.78;21.33;;;;;;;5.77;100.00;100544.59;5022930;28;20040;-82
2021/05/07 06:25:47;;;;;;;38.47;21.38;;;;;;;5.72;100.00;100546.63;5024915;28;20087;-81
2021/05/07 06:28:13;;;;;;;43.10;22.23;;;;;;;5.69;100.00;100559.13;5012749;28;20034;-83
2021/05/07 06:30:38;;;;;;;41.45;21.83;;;;;;;5.76;100.00;100564.19;5009192;28;20034;-83
2021/05/07 06:33:04;;;;;;;37.35;20.38;;;;;;;5.66;100.00;100564.63;5028700;28;20036;-82
2021/05/07 06:35:29;;;;;;;35.00;19.10;;;;;;;5.66;100.00;100547.78;5013191;28;20025;-84
2021/05/07 06:37:57;;;;;;;36.70;20.92;;;;;;;5.65;100.00;100584.19;5026763;28;20413;-86
2021/05/07 06:40:23;;;;;;;25.05;14.00;;;;;;;5.52;100.00;100588.34;5029916;28;20065;-85
2021/05/07 06:42:49;;;;;;;18.23;10.55;;;;;;;5.25;100.00;100605.53;5023216;28;20056;-85
2021/05/07 06:45:15;;;;;;;16.58;9.15;;;;;;;5.08;100.00;100608.94;5006931;28;20030;-84
2021/05/07 06:47:41;;;;;;;17.00;9.05;;;;;;;5.01;100.00;100611.94;5022017;28;20038;-84
2021/05/07 06:50:08;;;;;;;16.48;10.15;;;;;;;4.93;100.00;100612.28;5020453;28;20128;-84
2021/05/07 06:52:33;;;;;;;15.50;9.40;;;;;;;4.90;100.00;100620.38;5026997;28;20026;-84
2021/05/07 06:54:59;;;;;;;16.58;10.18;;;;;;;4.87;100.00;100632.03;5003552;28;20036;-84
2021/05/07 06:57:25;;;;;;;18.25;9.70;;;;;;;4.72;100.00;100637.97;5019790;28;20034;-84
2021/05/07 06:59:52;;;;;;;18.85;10.18;;;;;;;4.72;100.00;100637.97;5006908;28;20030;-84
2021/05/07 07:02:18;;;;;;;20.40;11.10;;;;;;;4.64;100.00;100636.56;5023469;28;20452;-84
2021/05/07 07:04:45;;;;;;;20.00;11.80;;;;;;;4.60;100.00;100637.63;5007692;28;20029;-83
2021/05/07 07:07:11;;;;;;;18.92;11.32;;;;;;;4.63;100.00;100633.03;5024443;28;20128;-84
2021/05/07 07:09:36;;;;;;;34.88;18.15;;;;;;;4.59;100.00;100642.06;5009304;28;20105;-83
2021/05/07 07:12:02;;;;;;;21.80;12.90;;;;;;;4.61;100.00;100642.03;5009968;28;20041;-82
2021/05/07 07:14:27;;;;;;;21.23;12.60;;;;;;;4.74;100.00;100651.22;5019517;28;20072;-83
2021/05/07 07:16:53;;;;;;;22.17;13.00;;;;;;;4.80;100.00;100662.47;5024120;28;20051;-84
2021/05/07 07:19:18;;;;;;;24.60;14.05;;;;;;;4.85;100.00;100668.47;4997984;28;20037;-84
2021/05/07 07:21:44;;;;;;;24.02;14.05;;;;;;;4.87;100.00;100668.41;5024882;28;20053;-84
2021/05/07 07:24:09;;;;;;;23.27;13.57;;;;;;;4.90;100.00;100676.25;5026952;28;20120;-83
2021/05/07 07:26:35;;;;;;;24.30;14.68;;;;;;;4.75;100.00;100685.69;5024157;28;20029;-83
2021/05/07 07:29:00;;;;;;;25.58;14.85;;;;;;;4.85;100.00;100686.22;5024862;28;20411;-84
2021/05/07 07:31:25;;;;;;;22.63;14.13;;;;;;;4.82;100.00;100681.88;5015881;28;20038;-85
2021/05/07 07:33:51;;;;;;;22.67;13.73;;;;;;;4.76;100.00;100702.53;5026592;28;20346;-84
2021/05/07 07:36:17;;;;;;;19.20;12.23;;;;;;;4.73;100.00;100707.97;5005633;28;20079;-84
2021/05/07 07:38:42;;;;;;;23.70;13.63;;;;;;;4.79;100.00;100705.06;5022609;28;20040;-84
2021/05/07 07:41:08;;;;;;;22.25;12.77;;;;;;;4.82;100.00;100719.09;5000818;28;20030;-83
2021/05/07 07:43:33;;;;;;;23.80;13.60;;;;;;;4.95;100.00;100731.91;5022803;28;20103;-84
2021/05/07 07:46:00;;;;;;;20.17;12.98;;;;;;;5.01;100.00;100728.97;5014844;28;20029;-83
2021/05/07 07:48:25;;;;;;;17.85;12.02;;;;;;;5.08;100.00;100727.81;5007470;28;20103;-83
2021/05/07 07:50:51;;;;;;;20.33;12.32;;;;;;;5.15;100.00;100731.94;5020237;28;20490;-84
2021/05/07 07:53:16;;;;;;;13.60;8.13;;;;;;;5.36;100.00;100741.69;5025655;28;20079;-84
2021/05/07 07:55:42;;;;;;;12.75;7.28;;;;;;;5.86;100.00;100750.16;5023158;28;20793;-84
2021/05/07 07:58:08;;;;;;;12.13;7.20;;;;;;;6.82;100.00;100745.69;5011015;28;20021;-84
2021/05/07 08:00:34;;;;;;;9.95;6.72;;;;;;;7.29;95.83;100736.19;5022425;28;20030;-83
2021/05/07 08:03:00;;;;;;;8.55;5.95;;;;;;;7.40;93.44;100748.16;5020971;28;20040;-83
2021/05/07 08:05:25;;;;;;;11.82;7.35;;;;;;;7.62;95.43;100752.31;5011817;28;20029;-83
2021/05/07 08:07:55;;;;;;;10.40;6.88;;;;;;;7.86;93.71;100758.19;5021526;28;20091;-84
2021/05/07 08:10:21;;;;;;;8.45;5.65;;;;;;;8.70;91.10;100773.22;5003540;28;20057;-82
2021/05/07 08:12:46;;;;;;;9.70;5.15;;;;;;;9.15;89.24;100785.84;5020266;28;20486;-83
2021/05/07 08:15:12;;;;;;;7.82;5.43;;;;;;;8.87;87.66;100791.03;5000943;28;20091;-83
2021/05/07 08:17:37;;;;;;;7.50;5.30;;;;;;;8.96;86.31;100786.97;5003347;28;20390;-82
2021/05/07 08:20:07;;;;;;;7.15;4.40;;;;;;;9.84;82.37;100779.09;5024607;28;20441;-83
2021/05/07 08:22:33;;;;;;;5.28;3.65;;;;;;;10.65;80.39;100797.31;4998859;28;20037;-82
2021/05/07 08:24:59;;;;;;;4.93;3.40;;;;;;;11.25;78.98;100808.59;5019020;28;20047;-83
2021/05/07 08:27:25;;;;;;;4.72;3.25;;;;;;;10.82;76.56;100809.66;5014682;28;20036;-83
2021/05/07 08:29:50;;;;;;;4.45;3.20;;;;;;;11.44;74.97;100812.75;5018408;28;20402;-83
2021/05/07 08:32:16;;;;;;;3.97;2.70;;;;;;;11.54;73.22;100824.63;5020552;28;20060;-83
2021/05/07 08:34:42;;;;;;;6.32;2.80;;;;;;;11.52;75.62;100823.88;5023090;28;20084;-83
2021/05/07 08:37:11;;;;;;;5.25;2.63;;;;;;;11.71;75.13;100841.38;5008059;28;20060;-82
2021/05/07 08:39:37;;;;;;;3.92;2.80;;;;;;;11.45;76.97;100850.28;5020432;28;20029;-82
2021/05/07 08:42:09;;;;;;;3.40;2.72;;;;;;;11.54;76.14;100859.59;5022586;28;20132;-82
2021/05/07 08:44:34;;;;;;;4.90;3.22;;;;;;;11.10;80.17;100859.78;5005259;28;20132;-83
2021/05/07 08:47:01;;;;;;;3.55;2.28;;;;;;;11.18;78.53;100873.56;5023116;28;20547;-82
2021/05/07 08:49:28;;;;;;;3.58;2.20;;;;;;;11.94;75.63;100863.19;5026535;28;20490;-82
2021/05/07 08:51:54;;;;;;;2.90;2.40;;;;;;;11.62;75.04;100867.97;5026058;28;20041;-81
2021/05/07 08:54:19;;;;;;;4.93;2.58;;;;;;;11.01;77.83;100882.72;5022030;28;20033;-82
2021/05/07 08:56:45;;;;;;;3.70;2.13;;;;;;;11.22;81.13;100878.66;5006768;28;20030;-83
2021/05/07 08:59:11;;;;;;;3.42;2.58;;;;;;;11.12;79.54;100890.94;5024989;28;20025;-83
2021/05/07 09:01:41;;;;;;;2.60;2.05;;;;;;;10.77;77.96;100889.63;5023246;28;20343;-82
2021/05/07 09:04:12;;;;;;;3.78;2.22;;;;;;;11.22;74.65;100892.09;5020895;28;20528;-82
2021/05/07 09:06:52;;;;;;;2.92;2.35;;;;;;;11.30;74.33;100905.03;5024067;28;20037;-83
2021/05/07 09:09:19;;;;;;;3.58;1.75;;;;;;;10.76;75.27;100904.00;5020241;28;20063;-83
2021/05/07 09:11:45;;;;;;;2.92;2.03;;;;;;;10.73;76.44;100906.91;5006930;28;20025;-84
2021/05/07 09:14:10;;;;;;;2.28;1.90;;;;;;;11.03;75.34;100913.03;5025771;28;20045;-82
2021/05/07 09:16:36;;;;;;;4.57;2.33;;;;;;;11.00;76.71;100918.59;5010298;28;20030;-85
2021/05/07 09:19:02;;;;;;;2.85;1.80;;;;;;;10.77;77.36;100924.53;5020772;28;20033;-87
2021/05/07 09:21:27;;;;;;;2.67;1.95;;;;;;;10.66;75.67;100927.03;5021761;28;20037;-83
2021/05/07 09:23:53;;;;;;;3.65;1.83;;;;;;;11.20;73.23;100936.13;5009203;28;20041;-83
2021/05/07 09:26:18;;;;;;;3.08;1.98;;;;;;;11.93;70.58;100937.63;4999587;28;20103;-84
2021/05/07 09:28:51;;;;;;;6.53;1.92;;;;;;;12.04;68.71;100939.59;5003765;28;20322;-83
2021/05/07 09:31:19;;;;;;;3.42;1.77;;;;;;;11.53;71.05;100952.81;5014246;28;20426;-83
2021/05/07 09:33:46;;;;;;;2.58;1.67;;;;;;;11.95;71.04;100951.00;5021129;28;20030;-84
2021/05/07 09:36:26;;;;;;;4.75;1.90;;;;;;;12.31;67.22;100953.03;5020130;28;20513;-83
2021/05/07 09:38:52;;;;;;;3.65;1.83;;;;;;;12.51;67.38;100964.19;5024413;28;20057;-84
2021/05/07 09:41:18;;;;;;;3.42;1.80;;;;;;;12.24;66.16;100963.34;5003473;28;20030;-84
2021/05/07 09:43:44;;;;;;;3.92;2.22;;;;;;;11.78;69.29;100970.94;5004978;28;20076;-83
2021/05/07 09:46:09;;;;;;;4.90;1.80;;;;;;;11.75;68.13;100973.81;5012995;28;20372;-84
2021/05/07 09:48:40;;;;;;;7.85;1.95;;;;;;;11.82;68.00;100983.22;5009129;28;20037;-83
2021/05/07 09:51:06;;;;;;;3.75;2.50;;;;;;;11.95;69.10;100989.50;5022541;28;20033;-83
2021/05/07 09:53:34;;;;;;;4.18;2.38;;;;;;;11.58;65.33;100990.13;5022059;28;20029;-83
2021/05/07 09:56:10;;;;;;;6.43;2.13;;;;;;;11.57;66.72;100999.16;5018908;28;20041;-85
2021/05/07 09:58:37;;;;;;;7.45;2.80;;;;;;;11.52;67.81;101006.66;5023185;28;20041;-84
2021/05/07 10:01:02;;;;;;;5.75;3.22;;;;;;;11.41;70.34;101009.19;5012415;28;20025;-84
2021/05/07 10:03:28;;;;;;;6.10;2.80;;;;;;;11.85;70.90;101017.13;5022495;28;20068;-85
2021/05/07 10:05:53;;;;;;;7.18;2.38;;;;;;;12.25;65.01;101026.97;5023611;28;20030;-82
2021/05/07 10:08:19;;;;;;;4.75;2.38;;;;;;;12.18;60.23;101032.88;5026753;28;20068;-83
2021/05/07 10:10:47;;;;;;;6.72;2.78;;;;;;;12.16;62.97;101030.28;5021816;28;20041;-82
2021/05/07 10:13:24;;;;;;;4.18;2.28;;;;;;;12.10;64.12;101041.44;5018907;28;20057;-84
2021/05/07 10:16:03;;;;;;;3.40;2.20;;;;;;;11.87;63.30;101039.38;5027922;28;20045;-83
2021/05/07 10:18:31;;;;;;;3.90;2.20;;;;;;;12.26;58.62;101036.78;5010177;28;20482;-83
2021/05/07 10:21:02;;;;;;;3.80;2.40;;;;;;;12.57;62.21;101046.38;5003521;28;20624;-83
2021/05/07 10:23:28;;;;;;;4.38;1.90;;;;;;;12.77;61.04;101042.34;5026997;28;20622;-82
2021/05/07 10:26:08;;;;;;;4.05;2.00;;;;;;;12.66;60.17;101044.88;5025351;28;20052;-83
2021/05/07 10:28:48;;;;;;;4.40;1.90;;;;;;;12.21;59.17;101052.38;5027426;28;20413;-83
2021/05/07 10:31:16;;;;;;;4.60;2.13;;;;;;;11.90;60.49;101048.13;5009974;28;20030;-84
2021/05/07 10:34:03;;;;;;;2.53;2.10;;;;;;;11.61;61.73;101049.09;5027462;28;20120;-84
2021/05/07 10:36:52;;;;;;;4.95;2.40;;;;;;;12.00;61.89;101054.63;5007816;28;20175;-84
2021/05/07 10:39:20;;;;;;;4.10;2.30;;;;;;;11.84;57.13;101053.91;5027404;28;20509;-84
2021/05/07 10:41:48;;;;;;;5.63;2.58;;;;;;;11.71;59.65;101066.38;5008184;28;20029;-84
2021/05/07 10:44:14;;;;;;;9.57;2.40;;;;;;;11.42;59.74;101064.66;5012484;28;20541;-83
2021/05/07 10:46:44;;;;;;;4.90;2.33;;;;;;;11.06;60.69;101068.63;5021092;28;20033;-83
2021/05/07 10:49:10;;;;;;;5.80;2.30;;;;;;;11.15;62.70;101073.47;5008844;28;20038;-84
2021/05/07 10:51:36;;;;;;;3.42;2.38;;;;;;;11.27;60.93;101075.41;5008532;28;20045;-84
2021/05/07 10:54:13;;;;;;;2.50;1.90;;;;;;;11.34;60.50;101067.81;5018747;28;20048;-84
2021/05/07 10:56:44;;;;;;;7.65;4.85;;;;;;;11.53;61.61;101078.28;5023979;28;20112;-84
2021/05/07 10:59:20;;;;;;;8.23;5.60;;;;;;;12.01;57.51;101079.72;5030901;28;20038;-83
2021/05/07 11:02:04;;;;;;;7.38;3.33;;;;;;;12.29;59.66;101078.78;5013646;28;20647;-83
2021/05/07 11:04:44;;;;;;;3.22;2.25;;;;;;;12.65;58.25;101081.75;5040421;28;20101;-85
2021/05/07 11:07:10;;;;;;;41.38;15.20;;;;;;;12.74;55.94;101085.63;5006535;28;20041;-84
2021/05/07 11:09:35;;;;;;;13.50;7.28;;;;;;;13.17;57.93;101088.97;5028837;28;20426;-85
2021/05/07 11:12:04;;;;;;;21.58;8.77;;;;;;;13.23;53.29;101088.56;5010335;28;20037;-85